Time;durP1;ratioP1;P1;durP2;ratioP2;P2;SDS_P1;SDS_P2;PMS_P1;PMS_P2;Temp;Humidity;BMP_temperature;BMP_pressure;BME280_temperature;BME280_humidity;BME280_pressure;Samples;Min_cycle;Max_cycle;Signal;HPM_P1;HPM_P2
2022/12/27 00:01:33;;;;;;;1.20;0.70;;;6.60;99.90;;;;;;5010939;28;20202;-74
2022/12/27 00:03:59;;;;;;;2.40;0.90;;;6.60;99.90;;;;;;5010328;28;20588;-72
2022/12/27 00:06:26;;;;;;;3.83;0.80;;;6.50;99.90;;;;;;5011185;28;20211;-71
2022/12/27 00:08:52;;;;;;;1.00;0.70;;;6.40;99.90;;;;;;5011365;28;20184;-73
2022/12/27 00:11:21;;;;;;;1.93;0.70;;;6.30;99.90;;;;;;5010044;28;20938;-73
2022/12/27 00:13:47;;;;;;;7.90;1.20;;;6.20;99.90;;;;;;5026231;28;20178;-74
2022/12/27 00:16:16;;;;;;;2.87;1.00;;;6.10;99.90;;;;;;5011092;28;20431;-73
2022/12/27 00:18:41;;;;;;;2.80;0.70;;;6.00;99.90;;;;;;5013650;28;20838;-73
2022/12/27 00:21:10;;;;;;;2.00;0.60;;;6.00;99.90;;;;;;5021144;28;20443;-73
2022/12/27 00:23:38;;;;;;;1.33;0.80;;;5.90;99.90;;;;;;5019513;28;20644;-75
2022/12/27 00:26:06;;;;;;;1.33;0.80;;;5.80;99.90;;;;;;5020735;28;20459;-74
2022/12/27 00:28:33;;;;;;;1.97;0.93;;;5.80;99.90;;;;;;5015729;28;20427;-74
2022/12/27 00:30:59;;;;;;;4.30;1.00;;;5.70;99.90;;;;;;5011644;28;20469;-73
2022/12/27 00:33:27;;;;;;;1.50;0.90;;;5.70;99.90;;;;;;5010479;28;20443;-74
2022/12/27 00:35:52;;;;;;;2.37;1.03;;;5.60;99.90;;;;;;5010704;28;20436;-73
2022/12/27 00:38:18;;;;;;;2.10;0.77;;;5.50;99.90;;;;;;5010900;28;20476;-73
2022/12/27 00:40:44;;;;;;;2.53;0.90;;;5.50;99.90;;;;;;5010885;28;20182;-73
2022/12/27 00:43:09;;;;;;;2.40;0.97;;;5.50;99.90;;;;;;5010957;28;20176;-73
2022/12/27 00:45:35;;;;;;;2.13;0.70;;;5.40;99.90;;;;;;5010440;28;20329;-73
2022/12/27 00:48:00;;;;;;;10.13;0.80;;;5.40;99.90;;;;;;5011183;28;20224;-73
2022/12/27 00:50:26;;;;;;;2.83;0.80;;;5.30;99.90;;;;;;5009421;28;20497;-73
2022/12/27 00:52:51;;;;;;;8.50;1.77;;;5.30;99.90;;;;;;5010588;28;20212;-73
2022/12/27 00:55:17;;;;;;;2.17;0.80;;;5.30;99.90;;;;;;5013886;28;20470;-73
2022/12/27 00:57:42;;;;;;;2.60;0.83;;;5.30;99.90;;;;;;5013981;28;20860;-73
2022/12/27 01:00:09;;;;;;;3.53;0.90;;;5.30;99.90;;;;;;5013715;28;20181;-74
2022/12/27 01:02:35;;;;;;;3.90;1.07;;;5.30;99.90;;;;;;5014667;28;20209;-73
2022/12/27 01:05:01;;;;;;;1.33;0.70;;;5.20;99.90;;;;;;5013417;28;20421;-73
2022/12/27 01:07:26;;;;;;;1.53;0.70;;;5.20;99.90;;;;;;5013552;28;20185;-73
2022/12/27 01:09:52;;;;;;;3.77;0.90;;;5.10;99.90;;;;;;5012968;28;20626;-73
2022/12/27 01:12:17;;;;;;;3.90;0.90;;;5.10;99.90;;;;;;5013447;28;20212;-73
2022/12/27 01:14:43;;;;;;;3.87;0.97;;;5.10;99.90;;;;;;5013118;28;20191;-73
2022/12/27 01:17:08;;;;;;;1.73;0.80;;;5.00;99.90;;;;;;5014355;28;20673;-73
2022/12/27 01:19:35;;;;;;;2.60;0.77;;;5.00;99.90;;;;;;5013973;28;20193;-73
2022/12/27 01:22:01;;;;;;;3.07;1.77;;;4.90;99.90;;;;;;5014446;28;20190;-73
2022/12/27 01:24:26;;;;;;;7.70;1.00;;;4.80;99.90;;;;;;5013786;28;20427;-73
2022/12/27 01:26:52;;;;;;;7.77;1.17;;;4.70;99.90;;;;;;5014857;28;20916;-74
2022/12/27 01:29:18;;;;;;;3.63;0.90;;;4.60;99.90;;;;;;5013905;28;20252;-73
2022/12/27 01:31:44;;;;;;;4.33;1.07;;;4.60;99.90;;;;;;5013937;28;20275;-74
2022/12/27 01:34:09;;;;;;;8.23;1.20;;;4.60;99.90;;;;;;5014161;28;20846;-73
2022/12/27 01:36:35;;;;;;;4.00;0.90;;;4.50;99.90;;;;;;5014190;28;20663;-74
2022/12/27 01:39:01;;;;;;;4.83;1.07;;;4.50;99.90;;;;;;5014284;28;20197;-74
2022/12/27 01:44:38;;;;;;;2.30;0.90;;;4.40;99.90;;;;;;5014346;28;20517;-74
2022/12/27 01:47:42;;;;;;;3.57;2.20;;;4.30;99.90;;;;;;5013938;28;20422;-73
2022/12/27 01:50:29;;;;;;;16.50;1.70;;;4.30;99.90;;;;;;5014540;28;20984;-73
2022/12/27 01:53:00;;;;;;;2.67;1.20;;;4.20;99.90;;;;;;5013703;28;20459;-73
2022/12/27 01:55:57;;;;;;;2.77;1.00;;;4.20;99.90;;;;;;5014266;28;20497;-73
2022/12/27 01:58:30;;;;;;;4.30;0.90;;;4.10;99.90;;;;;;5007772;28;20522;-73
2022/12/27 03:34:30;;;;;;;3.43;0.80;;;1.80;99.90;;;;;;5050489;28;20430;-72
2022/12/27 03:40:05;;;;;;;2.67;0.87;;;1.80;99.90;;;;;;5052641;28;20419;-74
2022/12/27 03:45:20;;;;;;;2.17;1.10;;;1.80;99.90;;;;;;5052324;28;20421;-74
2022/12/27 03:48:03;;;;;;;6.67;0.90;;;1.80;99.90;;;;;;5055861;28;20488;-73
2022/12/27 03:50:39;;;;;;;3.47;1.03;;;1.70;99.90;;;;;;5072216;28;20444;-74
2022/12/27 03:53:35;;;;;;;7.70;0.93;;;1.70;99.90;;;;;;5071094;28;20426;-73
2022/12/27 03:56:02;;;;;;;3.37;1.00;;;1.70;99.90;;;;;;5071891;28;20405;-74
2022/12/27 03:58:28;;;;;;;5.57;0.90;;;1.80;99.90;;;;;;5071119;28;20477;-74
2022/12/27 04:00:53;;;;;;;2.80;0.87;;;1.80;99.90;;;;;;5071419;28;20423;-74
2022/12/27 04:03:19;;;;;;;5.80;0.87;;;1.80;99.90;;;;;;5071483;28;20176;-73
2022/12/27 04:05:44;;;;;;;2.50;1.20;;;1.70;99.90;;;;;;5071273;28;20174;-75
2022/12/27 04:35:31;;;;;;;9.63;1.17;;;1.50;99.90;;;;;;5070958;28;20410;-74
2022/12/27 04:37:56;;;;;;;3.57;1.10;;;1.50;99.90;;;;;;5071031;28;20455;-74
2022/12/27 04:57:04;;;;;;;2.03;1.10;;;1.40;99.90;;;;;;5071305;28;20501;-74
2022/12/27 05:02:15;;;;;;;3.10;0.80;;;1.50;99.90;;;;;;5071442;28;20483;-74
2022/12/27 05:04:41;;;;;;;3.00;1.10;;;1.40;99.90;;;;;;5070903;28;20404;-74
2022/12/27 05:15:23;;;;;;;4.40;1.20;;;1.50;99.90;;;;;;5071163;28;20465;-74
2022/12/27 05:17:49;;;;;;;9.53;1.10;;;1.50;99.90;;;;;;5070521;28;20461;-73
2022/12/27 05:20:14;;;;;;;4.93;1.53;;;1.50;99.90;;;;;;5071158;28;20550;-74
2022/12/27 05:25:37;;;;;;;2.10;1.10;;;1.60;99.90;;;;;;5039382;28;20185;-74
2022/12/27 05:28:04;;;;;;;6.07;1.70;;;1.60;99.90;;;;;;5050743;28;20437;-74
2022/12/27 05:30:34;;;;;;;6.23;1.17;;;1.60;99.90;;;;;;5050748;28;20791;-74
2022/12/27 05:33:00;;;;;;;2.60;0.90;;;1.60;99.90;;;;;;5069998;28;20448;-73
2022/12/27 05:35:26;;;;;;;3.53;1.13;;;1.60;99.90;;;;;;5070818;28;20869;-73
2022/12/27 05:37:54;;;;;;;1.00;0.70;;;1.60;99.90;;;;;;5070733;28;20203;-74
2022/12/27 05:40:20;;;;;;;3.10;1.20;;;1.50;99.90;;;;;;5070623;28;20173;-74
2022/12/27 05:42:46;;;;;;;2.60;0.90;;;1.50;99.90;;;;;;5073648;28;20450;-73
2022/12/27 05:45:12;;;;;;;3.63;1.27;;;1.50;99.90;;;;;;5073949;28;20395;-75
2022/12/27 05:47:38;;;;;;;2.80;1.00;;;1.40;99.90;;;;;;5074221;28;20222;-74
2022/12/27 05:50:04;;;;;;;3.33;1.03;;;1.40;99.90;;;;;;5073752;28;20494;-74
2022/12/27 05:52:31;;;;;;;4.40;1.13;;;1.40;99.90;;;;;;5073530;28;20981;-74
2022/12/27 05:54:56;;;;;;;2.70;1.37;;;1.40;99.90;;;;;;5073914;28;20395;-74
2022/12/27 05:57:22;;;;;;;2.23;1.17;;;1.40;99.90;;;;;;5073301;28;20980;-75
2022/12/27 05:59:47;;;;;;;1.63;1.30;;;1.40;99.90;;;;;;5073924;28;20650;-74
2022/12/27 06:02:13;;;;;;;2.03;0.80;;;1.40;99.90;;;;;;5073237;28;20210;-73
2022/12/27 06:04:38;;;;;;;1.90;1.00;;;1.40;99.90;;;;;;5073756;28;20179;-74
2022/12/27 06:07:04;;;;;;;3.53;1.03;;;1.40;99.90;;;;;;5073603;28;20699;-73
2022/12/27 06:09:29;;;;;;;14.47;8.10;;;1.40;99.90;;;;;;5073487;28;20186;-74
2022/12/27 06:11:55;;;;;;;5.03;3.00;;;1.50;99.90;;;;;;5073151;28;20262;-74
2022/12/27 06:14:20;;;;;;;4.83;1.73;;;1.50;99.90;;;;;;5073640;28;20226;-74
2022/12/27 06:16:46;;;;;;;2.57;1.27;;;1.50;99.90;;;;;;5073507;28;20185;-74
2022/12/27 06:19:12;;;;;;;5.20;1.10;;;1.50;99.90;;;;;;5073478;28;20234;-72
2022/12/27 06:21:37;;;;;;;3.13;1.07;;;1.50;99.90;;;;;;5073285;28;20195;-73
2022/12/27 06:24:03;;;;;;;4.83;1.40;;;1.50;99.90;;;;;;5072961;28;20208;-74
2022/12/27 06:26:29;;;;;;;4.00;0.97;;;1.50;99.90;;;;;;5073570;28;20253;-73
2022/12/27 06:28:56;;;;;;;3.60;1.17;;;1.40;99.90;;;;;;5073349;28;20187;-74
2022/12/27 06:31:22;;;;;;;4.00;1.90;;;1.40;99.90;;;;;;5073255;28;20526;-74
2022/12/27 06:33:49;;;;;;;3.77;1.10;;;1.40;99.90;;;;;;5073246;28;20410;-73
2022/12/27 06:36:18;;;;;;;2.90;1.60;;;1.30;99.90;;;;;;5073320;28;20415;-74
2022/12/27 06:38:44;;;;;;;8.63;1.50;;;1.30;99.90;;;;;;5072884;28;20458;-74
2022/12/27 06:41:13;;;;;;;10.63;1.63;;;1.30;99.90;;;;;;5072812;28;20461;-74
2022/12/27 06:43:39;;;;;;;5.80;1.00;;;1.30;99.90;;;;;;5072816;28;20488;-74
2022/12/27 06:46:09;;;;;;;10.83;1.40;;;1.30;99.90;;;;;;5052989;28;20383;-74
2022/12/27 06:48:35;;;;;;;1.77;0.90;;;1.30;99.90;;;;;;5055264;28;20477;-74
2022/12/27 06:51:04;;;;;;;4.07;1.50;;;1.30;99.90;;;;;;5072917;28;20845;-74
2022/12/27 06:53:29;;;;;;;4.80;1.50;;;1.30;99.90;;;;;;5072546;28;20394;-75
2022/12/27 06:55:55;;;;;;;3.57;1.13;;;1.30;99.90;;;;;;5072870;28;20426;-74
2022/12/27 06:58:20;;;;;;;2.30;1.13;;;1.30;99.90;;;;;;5072619;28;20615;-74
2022/12/27 07:00:46;;;;;;;3.60;1.53;;;1.30;99.90;;;;;;5072421;28;20169;-74
2022/12/27 07:03:11;;;;;;;4.30;2.20;;;1.30;99.90;;;;;;5072550;28;20184;-71
2022/12/27 07:05:37;;;;;;;6.80;2.00;;;1.40;99.90;;;;;;5072890;28;20231;-72
2022/12/27 07:08:03;;;;;;;2.57;1.40;;;1.30;99.90;;;;;;5072481;28;20197;-72
2022/12/27 07:10:29;;;;;;;5.70;2.13;;;1.30;99.90;;;;;;5072537;28;20391;-72
2022/12/27 07:12:55;;;;;;;6.43;2.47;;;1.30;99.90;;;;;;5072241;28;20416;-72
2022/12/27 07:15:21;;;;;;;4.80;2.43;;;1.30;99.90;;;;;;5072269;28;20655;-72
2022/12/27 07:17:46;;;;;;;5.87;2.40;;;1.40;99.90;;;;;;5072023;28;20426;-72
2022/12/27 07:20:12;;;;;;;6.17;2.50;;;1.30;99.90;;;;;;5072298;28;20183;-72
2022/12/27 07:22:37;;;;;;;6.33;2.53;;;1.30;99.90;;;;;;5071638;28;20866;-73
2022/12/27 07:25:04;;;;;;;4.60;2.33;;;1.40;99.90;;;;;;5072206;28;20260;-72
2022/12/27 07:27:32;;;;;;;3.43;1.73;;;1.40;99.90;;;;;;5072121;28;20190;-72
2022/12/27 07:29:58;;;;;;;3.70;2.10;;;1.40;99.90;;;;;;5072190;28;20423;-72
2022/12/27 07:32:23;;;;;;;3.80;1.93;;;1.30;99.90;;;;;;5071541;28;20876;-72
2022/12/27 07:34:49;;;;;;;5.90;1.60;;;1.30;99.90;;;;;;5072114;28;20184;-72
2022/12/27 07:37:16;;;;;;;3.70;1.97;;;1.40;99.90;;;;;;5071586;28;20675;-72
2022/12/27 07:39:42;;;;;;;4.90;2.37;;;1.50;99.90;;;;;;5071836;28;20258;-72
2022/12/27 07:42:07;;;;;;;8.40;2.00;;;1.40;99.90;;;;;;5071383;28;20503;-72
2022/12/27 07:44:32;;;;;;;4.87;2.27;;;1.50;99.90;;;;;;5071890;28;20573;-72
2022/12/27 07:46:58;;;;;;;6.90;2.27;;;1.50;99.90;;;;;;5069940;28;20237;-72
2022/12/27 07:49:23;;;;;;;6.00;2.07;;;1.60;99.90;;;;;;5070468;28;20216;-71
2022/12/27 07:51:49;;;;;;;4.23;1.73;;;1.60;99.90;;;;;;5070365;28;20216;-72
2022/12/27 07:54:14;;;;;;;4.03;1.67;;;1.70;99.90;;;;;;5070339;28;20203;-71
2022/12/27 07:56:40;;;;;;;4.47;1.97;;;1.70;99.90;;;;;;5057507;28;20199;-71
2022/12/27 07:59:11;;;;;;;3.10;1.50;;;1.80;99.90;;;;;;5052931;28;20599;-71
2022/12/27 08:04:21;;;;;;;6.00;1.00;;;2.10;99.90;;;;;;5071159;28;20440;-71
2022/12/27 08:06:46;;;;;;;5.50;1.20;;;2.30;99.90;;;;;;5071384;28;20415;-72
2022/12/27 08:09:15;;;;;;;2.10;1.00;;;2.50;99.90;;;;;;5072149;28;20168;-71
2022/12/27 08:11:41;;;;;;;4.37;1.30;;;2.70;99.90;;;;;;5071374;28;20691;-71
2022/12/27 08:14:06;;;;;;;3.70;1.10;;;2.80;99.90;;;;;;5071848;28;20399;-72
2022/12/27 08:16:32;;;;;;;4.03;1.10;;;2.90;99.90;;;;;;5071683;28;20177;-72
2022/12/27 08:18:57;;;;;;;1.40;0.80;;;3.10;99.90;;;;;;5071932;28;20211;-71
2022/12/27 08:21:23;;;;;;;3.57;1.40;;;3.20;99.90;;;;;;5070753;28;20208;-70
2022/12/27 08:23:48;;;;;;;2.97;1.30;;;3.30;99.90;;;;;;5072405;28;20169;-71
2022/12/27 08:26:14;;;;;;;2.33;0.97;;;3.30;99.90;;;;;;5071841;28;20262;-71
2022/12/27 08:28:40;;;;;;;6.40;1.53;;;3.40;99.90;;;;;;5072135;28;20186;-71
2022/12/27 08:31:07;;;;;;;1.50;0.97;;;3.50;99.90;;;;;;5065555;28;20478;-70
2022/12/27 08:33:33;;;;;;;5.43;1.73;;;3.60;99.90;;;;;;5062964;28;20261;-71
2022/12/27 08:36:03;;;;;;;1.30;0.73;;;3.60;99.90;;;;;;5062704;28;20946;-72
2022/12/27 08:38:29;;;;;;;4.97;1.27;;;3.70;99.90;;;;;;5054683;28;21051;-71
2022/12/27 08:40:54;;;;;;;5.50;1.20;;;3.80;99.90;;;;;;5071185;28;20500;-71
2022/12/27 08:43:20;;;;;;;2.50;1.70;;;3.90;99.90;;;;;;5070724;28;20251;-71
2022/12/27 08:45:46;;;;;;;1.40;0.80;;;4.00;99.90;;;;;;5071207;28;20259;-71
2022/12/27 08:48:11;;;;;;;5.73;1.40;;;4.10;99.90;;;;;;5071449;28;20179;-71
2022/12/27 08:50:37;;;;;;;1.97;0.80;;;4.10;99.90;;;;;;5071066;28;20216;-70
2022/12/27 08:53:04;;;;;;;2.80;1.10;;;4.20;99.90;;;;;;5070899;28;20167;-71
2022/12/27 08:55:30;;;;;;;2.50;0.90;;;4.30;99.90;;;;;;5070775;28;20186;-72
2022/12/27 08:57:57;;;;;;;2.80;0.93;;;4.30;99.90;;;;;;5071014;28;20970;-71
2022/12/27 09:00:23;;;;;;;3.37;1.37;;;4.40;99.90;;;;;;5050912;28;20489;-71
2022/12/27 09:02:49;;;;;;;1.40;0.87;;;4.50;99.90;;;;;;5062146;28;20442;-71
2022/12/27 09:05:14;;;;;;;1.93;0.80;;;4.60;99.90;;;;;;5070949;28;20418;-72
2022/12/27 09:07:40;;;;;;;2.03;1.20;;;4.60;99.90;;;;;;5070852;28;20190;-71
2022/12/27 09:10:06;;;;;;;2.50;2.30;;;4.70;99.90;;;;;;5070838;28;20620;-72
2022/12/27 09:12:32;;;;;;;2.27;1.80;;;4.90;99.90;;;;;;5070410;28;20736;-71
2022/12/27 09:14:58;;;;;;;2.50;1.20;;;4.90;99.90;;;;;;5067482;28;20473;-71
2022/12/27 09:17:24;;;;;;;2.53;1.13;;;5.10;99.90;;;;;;5067988;28;20997;-71
2022/12/27 09:19:50;;;;;;;2.40;1.10;;;5.40;99.90;;;;;;5074244;28;20191;-71
2022/12/27 09:22:15;;;;;;;3.07;1.47;;;5.80;99.90;;;;;;5073941;28;20518;-70
2022/12/27 09:24:41;;;;;;;6.10;2.10;;;5.90;99.90;;;;;;5074372;28;20176;-71
2022/12/27 09:27:06;;;;;;;1.73;1.07;;;6.30;99.90;;;;;;5073635;28;20204;-71
2022/12/27 09:29:32;;;;;;;2.27;1.03;;;6.60;99.90;;;;;;5074118;28;20178;-72
2022/12/27 09:31:57;;;;;;;11.73;1.80;;;6.90;99.90;;;;;;5081494;28;20232;-71
2022/12/27 09:34:23;;;;;;;2.80;1.40;;;7.30;99.90;;;;;;5075845;28;20187;-71
2022/12/27 09:36:48;;;;;;;4.70;1.30;;;7.50;99.90;;;;;;5070215;28;20179;-71
2022/12/27 09:39:16;;;;;;;4.27;1.80;;;7.80;99.90;;;;;;5074045;28;20181;-69
2022/12/27 09:41:55;;;;;;;4.57;1.20;;;8.20;99.90;;;;;;5069786;28;20695;-71
2022/12/27 09:44:33;;;;;;;2.80;0.87;;;8.70;99.90;;;;;;5072831;28;20463;-71
2022/12/27 09:47:25;;;;;;;1.67;0.80;;;9.20;99.90;;;;;;5067618;28;20439;-70
2022/12/27 09:50:00;;;;;;;2.67;1.00;;;9.30;99.90;;;;;;5062481;28;20507;-70
2022/12/27 09:52:36;;;;;;;2.80;0.90;;;9.40;99.90;;;;;;5061074;28;20464;-71
2022/12/27 09:55:10;;;;;;;3.20;0.70;;;9.50;99.90;;;;;;5061393;28;20413;-71
2022/12/27 09:57:38;;;;;;;1.13;0.80;;;9.30;99.90;;;;;;5060476;28;20502;-71
2022/12/27 10:00:20;;;;;;;2.53;0.70;;;9.30;99.90;;;;;;5061537;28;20416;-71
2022/12/27 10:02:47;;;;;;;3.63;1.13;;;9.30;99.90;;;;;;5057824;28;20438;-70
2022/12/27 10:05:33;;;;;;;1.97;0.93;;;9.40;99.90;;;;;;5059931;28;20827;-72
2022/12/27 10:08:14;;;;;;;1.30;0.60;;;9.30;99.90;;;;;;5061029;28;20512;-71
2022/12/27 10:11:08;;;;;;;1.60;0.80;;;9.30;99.90;;;;;;5060974;28;20415;-71
2022/12/27 10:13:44;;;;;;;2.40;0.80;;;9.00;99.90;;;;;;5060969;28;20426;-71
2022/12/27 10:16:25;;;;;;;4.67;2.90;;;9.00;99.90;;;;;;5053954;28;20432;-71
2022/12/27 10:19:09;;;;;;;2.33;0.90;;;9.00;99.90;;;;;;5059195;28;20473;-71
2022/12/27 10:21:38;;;;;;;6.50;0.93;;;8.90;99.90;;;;;;5060614;28;20430;-71
2022/12/27 10:24:17;;;;;;;9.00;0.93;;;9.10;99.90;;;;;;5060959;28;20418;-71
2022/12/27 10:26:43;;;;;;;2.73;0.80;;;9.10;99.90;;;;;;5059627;28;20418;-71
2022/12/27 10:29:22;;;;;;;4.13;1.10;;;9.20;99.90;;;;;;5059826;28;20533;-70
2022/12/27 10:31:48;;;;;;;2.83;0.77;;;9.20;99.90;;;;;;5062354;28;20205;-71
2022/12/27 10:34:16;;;;;;;3.33;0.80;;;9.30;99.90;;;;;;5054875;28;20423;-72
2022/12/27 10:36:43;;;;;;;3.70;0.83;;;9.30;99.90;;;;;;5051174;28;20234;-71
2022/12/27 10:39:18;;;;;;;3.63;1.10;;;9.40;99.90;;;;;;5068995;28;20438;-71
2022/12/27 10:42:24;;;;;;;3.43;0.70;;;9.60;99.90;;;;;;5071423;28;20498;-72
2022/12/27 10:44:50;;;;;;;3.60;1.10;;;9.40;99.90;;;;;;5046059;28;20429;-72
2022/12/27 10:47:15;;;;;;;3.20;1.00;;;9.50;99.90;;;;;;5070433;28;20412;-70
2022/12/27 10:49:59;;;;;;;1.90;0.73;;;9.60;99.90;;;;;;5070527;28;20176;-71
2022/12/27 10:52:29;;;;;;;3.43;1.40;;;9.60;99.90;;;;;;5072484;28;20689;-71
2022/12/27 10:54:56;;;;;;;2.40;1.00;;;9.50;99.90;;;;;;5072658;28;20432;-72
2022/12/27 10:57:31;;;;;;;3.13;0.87;;;9.80;99.90;;;;;;5072594;28;20456;-72
2022/12/27 11:00:15;;;;;;;3.17;0.90;;;9.80;99.90;;;;;;5072678;28;20404;-72
2022/12/27 11:02:51;;;;;;;10.37;0.93;;;10.10;99.90;;;;;;5072160;28;20804;-72
2022/12/27 11:05:28;;;;;;;3.47;0.83;;;10.40;99.90;;;;;;5071199;28;20426;-72
2022/12/27 11:07:54;;;;;;;2.63;0.90;;;10.80;99.90;;;;;;5060280;28;20851;-71
2022/12/27 11:10:30;;;;;;;1.70;0.70;;;10.90;99.90;;;;;;5059719;28;20430;-70
2022/12/27 11:13:16;;;;;;;3.80;0.90;;;11.20;99.90;;;;;;5066372;28;20203;-72
2022/12/27 11:15:52;;;;;;;3.60;1.27;;;11.50;99.90;;;;;;5070347;28;20429;-72
2022/12/27 11:18:19;;;;;;;2.37;0.80;;;11.30;99.90;;;;;;5071745;28;20460;-72
2022/12/27 11:20:53;;;;;;;1.80;0.90;;;11.50;99.90;;;;;;5070911;28;20810;-72
2022/12/27 11:23:21;;;;;;;8.43;0.80;;;11.20;99.90;;;;;;5071327;28;20794;-69
2022/12/27 11:25:50;;;;;;;1.43;0.70;;;11.00;99.90;;;;;;5069020;28;20507;-72
2022/12/27 11:28:29;;;;;;;2.30;0.90;;;10.60;99.90;;;;;;5053132;28;20846;-72
2022/12/27 11:30:59;;;;;;;9.00;1.13;;;10.30;99.90;;;;;;5066328;28;20421;-73
2022/12/27 11:33:46;;;;;;;4.17;0.90;;;10.10;99.90;;;;;;5071797;28;20775;-72
2022/12/27 11:36:14;;;;;;;2.70;0.80;;;10.00;99.90;;;;;;5050013;28;20436;-71
2022/12/27 11:38:43;;;;;;;3.13;1.20;;;9.70;99.90;;;;;;5051130;28;20461;-72
2022/12/27 11:41:15;;;;;;;3.73;1.10;;;9.50;99.90;;;;;;5064560;28;20437;-70
2022/12/27 11:43:52;;;;;;;1.60;0.80;;;9.30;99.90;;;;;;5077524;28;20439;-71
2022/12/27 11:46:34;;;;;;;1.90;1.13;;;9.10;99.90;;;;;;5071441;28;20504;-72
2022/12/27 11:49:01;;;;;;;1.67;0.80;;;9.00;99.90;;;;;;5071869;28;20438;-72
2022/12/27 11:52:17;;;;;;;5.47;1.30;;;8.80;99.90;;;;;;5070326;28;20953;-72
2022/12/27 11:55:09;;;;;;;3.00;0.90;;;8.70;99.90;;;;;;5028904;28;20435;-71
2022/12/27 11:57:56;;;;;;;4.23;1.07;;;8.70;99.90;;;;;;5070675;28;20576;-73
2022/12/27 12:00:23;;;;;;;5.70;1.77;;;8.70;99.90;;;;;;5071372;28;20455;-73
2022/12/27 12:03:07;;;;;;;2.13;0.87;;;8.60;99.90;;;;;;5071111;28;20845;-72
2022/12/27 12:05:53;;;;;;;5.87;1.00;;;8.50;99.90;;;;;;5071377;28;20410;-72
2022/12/27 12:08:42;;;;;;;2.53;1.27;;;8.60;99.90;;;;;;5065923;28;20440;-70
2022/12/27 12:11:33;;;;;;;4.17;1.30;;;8.70;99.90;;;;;;5052843;28;20549;-73
2022/12/27 12:14:22;;;;;;;7.57;1.07;;;8.90;99.90;;;;;;5071481;28;20509;-73
2022/12/27 12:17:18;;;;;;;1.87;1.00;;;8.90;99.90;;;;;;5062692;28;20433;-73
2022/12/27 12:20:10;;;;;;;5.30;1.00;;;8.90;99.90;;;;;;5070640;28;20474;-73
2022/12/27 12:22:55;;;;;;;2.57;0.90;;;9.10;99.90;;;;;;5070736;28;20507;-72
2022/12/27 12:25:32;;;;;;;3.90;0.70;;;9.10;99.90;;;;;;5059788;28;20944;-73
2022/12/27 12:28:00;;;;;;;3.03;0.93;;;9.20;99.90;;;;;;5060718;28;20422;-78
2022/12/27 12:30:50;;;;;;;1.70;1.07;;;9.20;99.90;;;;;;5060006;28;20440;-71
2022/12/27 12:33:47;;;;;;;4.30;0.83;;;9.00;99.90;;;;;;5064010;28;20441;-72
2022/12/27 12:36:22;;;;;;;1.17;0.70;;;9.00;99.90;;;;;;5070661;28;20416;-73
2022/12/27 12:39:15;;;;;;;1.53;0.73;;;8.90;99.90;;;;;;5070610;28;20461;-73
2022/12/27 12:41:53;;;;;;;1.77;1.07;;;8.80;99.90;;;;;;5070816;28;20446;-73
2022/12/27 12:44:53;;;;;;;2.00;1.10;;;8.70;99.90;;;;;;5070804;28;20932;-72
2022/12/27 12:47:27;;;;;;;1.97;0.90;;;8.80;99.90;;;;;;5038182;28;20429;-71
2022/12/27 12:50:18;;;;;;;1.73;0.80;;;8.90;99.90;;;;;;5072277;28;20418;-73
2022/12/27 12:53:02;;;;;;;6.03;1.20;;;9.00;99.90;;;;;;5070805;28;20539;-72
2022/12/27 12:55:34;;;;;;;1.77;0.70;;;9.10;99.90;;;;;;5074822;28;20467;-79
2022/12/27 12:58:34;;;;;;;2.13;0.90;;;9.10;99.90;;;;;;5075299;28;20457;-77
2022/12/27 13:01:29;;;;;;;3.60;1.00;;;9.20;99.90;;;;;;5074339;28;20469;-72
2022/12/27 13:04:27;;;;;;;8.43;1.00;;;9.30;99.90;;;;;;5074852;28;20412;-72
2022/12/27 13:07:05;;;;;;;3.33;1.10;;;9.30;99.90;;;;;;5046616;28;20591;-72
2022/12/27 13:09:42;;;;;;;2.20;0.70;;;9.30;99.90;;;;;;5054637;28;20425;-72
2022/12/27 13:12:13;;;;;;;3.33;0.90;;;9.40;99.90;;;;;;5065668;28;20435;-72
2022/12/27 13:15:12;;;;;;;3.07;0.80;;;9.30;99.90;;;;;;5074443;28;20440;-72
2022/12/27 13:18:01;;;;;;;1.57;0.80;;;9.20;99.90;;;;;;5036777;28;20448;-72
2022/12/27 13:20:44;;;;;;;1.83;0.93;;;9.10;99.90;;;;;;5059724;28;21019;-73
2022/12/27 13:23:43;;;;;;;4.17;0.80;;;9.10;99.90;;;;;;5063953;28;20841;-73
2022/12/27 13:26:16;;;;;;;3.10;1.10;;;9.10;99.90;;;;;;5066262;28;20440;-72
2022/12/27 13:29:03;;;;;;;2.47;0.90;;;9.20;99.90;;;;;;5070258;28;20772;-73
2022/12/27 13:31:38;;;;;;;1.50;0.77;;;9.20;99.90;;;;;;5066030;28;20472;-72
2022/12/27 13:34:16;;;;;;;5.03;1.10;;;9.10;99.90;;;;;;5073641;28;20424;-72
2022/12/27 13:36:58;;;;;;;2.17;1.20;;;9.10;99.90;;;;;;5073859;28;20426;-73
2022/12/27 13:39:58;;;;;;;4.10;1.20;;;9.10;99.90;;;;;;5074003;28;20428;-72
2022/12/27 13:42:35;;;;;;;1.00;0.77;;;9.00;99.90;;;;;;5073581;28;20520;-72
2022/12/27 13:45:06;;;;;;;1.20;0.80;;;9.00;99.90;;;;;;5074064;28;21053;-72
2022/12/27 13:47:51;;;;;;;2.80;0.90;;;8.90;99.90;;;;;;5073701;28;20418;-72
2022/12/27 13:50:33;;;;;;;3.00;1.07;;;8.80;99.90;;;;;;5073848;28;20488;-72
2022/12/27 13:53:43;;;;;;;3.17;1.10;;;8.90;99.90;;;;;;5070361;28;20441;-72
2022/12/27 13:56:51;;;;;;;3.23;0.87;;;8.90;99.90;;;;;;5074271;28;20436;-72
2022/12/27 14:00:01;;;;;;;3.97;0.80;;;8.90;99.90;;;;;;5053892;28;20425;-72
2022/12/27 14:02:35;;;;;;;1.00;0.60;;;8.90;99.90;;;;;;5055755;28;20862;-72
2022/12/27 14:05:14;;;;;;;1.80;0.90;;;8.80;99.90;;;;;;5073597;28;20461;-72
2022/12/27 14:07:49;;;;;;;2.57;0.90;;;8.90;99.90;;;;;;5066067;28;20440;-71
2022/12/27 14:10:36;;;;;;;2.77;0.80;;;8.80;99.90;;;;;;5073522;28;20824;-79
2022/12/27 14:13:06;;;;;;;1.97;1.27;;;8.60;99.90;;;;;;5071120;28;20819;-72
2022/12/27 14:16:04;;;;;;;2.60;0.90;;;8.60;99.90;;;;;;5071454;28;20471;-73
2022/12/27 14:18:35;;;;;;;1.70;0.77;;;8.60;99.90;;;;;;5071661;28;20452;-72
2022/12/27 14:21:06;;;;;;;3.07;0.97;;;8.50;99.90;;;;;;5053060;28;20443;-72
2022/12/27 14:23:35;;;;;;;2.70;1.00;;;8.60;99.90;;;;;;5067540;28;20482;-72
2022/12/27 14:26:18;;;;;;;3.73;0.80;;;8.50;99.90;;;;;;5073075;28;20428;-73
2022/12/27 14:28:52;;;;;;;2.30;1.17;;;8.40;99.90;;;;;;5072431;28;20426;-72
2022/12/27 14:31:40;;;;;;;7.30;1.00;;;8.30;99.90;;;;;;5072423;28;20452;-73
2022/12/27 14:34:08;;;;;;;5.17;0.80;;;8.30;99.90;;;;;;5053343;28;20421;-70
2022/12/27 14:36:58;;;;;;;2.37;0.93;;;8.30;99.90;;;;;;5065594;28;20417;-70
2022/12/27 14:39:59;;;;;;;6.73;1.17;;;8.20;99.90;;;;;;5065896;28;20442;-70
2022/12/27 14:43:04;;;;;;;2.90;0.70;;;8.10;99.90;;;;;;5065902;28;20443;-71
2022/12/27 14:46:04;;;;;;;6.20;2.07;;;8.00;99.90;;;;;;5065246;28;20417;-71
2022/12/27 14:49:07;;;;;;;4.73;1.77;;;8.00;99.90;;;;;;5086409;28;20419;-70
2022/12/27 14:52:03;;;;;;;4.50;2.90;;;7.90;99.90;;;;;;5087896;28;20465;-71
2022/12/27 14:54:28;;;;;;;2.50;1.17;;;7.80;99.90;;;;;;5081818;28;20385;-71
2022/12/27 14:57:04;;;;;;;5.40;1.07;;;7.80;99.90;;;;;;5060872;28;20451;-72
2022/12/27 14:59:53;;;;;;;3.17;1.07;;;7.80;99.90;;;;;;5066480;28;20532;-71
2022/12/27 15:02:34;;;;;;;3.57;1.43;;;7.80;99.90;;;;;;5076578;28;20440;-72
2022/12/27 15:05:24;;;;;;;2.00;1.00;;;7.70;99.90;;;;;;5071670;28;20456;-71
2022/12/27 15:08:00;;;;;;;2.80;1.10;;;7.70;99.90;;;;;;5052724;28;20199;-72
2022/12/27 15:10:58;;;;;;;2.73;0.90;;;7.60;99.90;;;;;;5055180;28;20430;-71
2022/12/27 15:13:44;;;;;;;3.20;1.07;;;7.50;99.90;;;;;;5072244;28;20417;-72
2022/12/27 15:16:15;;;;;;;2.43;1.10;;;7.50;99.90;;;;;;5078889;28;20432;-72
2022/12/27 15:19:03;;;;;;;6.30;1.10;;;7.40;99.90;;;;;;5054802;28;20501;-71
2022/12/27 15:21:48;;;;;;;2.53;0.90;;;7.30;99.90;;;;;;5062259;28;20698;-71
2022/12/27 15:24:33;;;;;;;1.70;0.70;;;7.20;99.90;;;;;;5072325;28;20389;-70
2022/12/27 15:26:59;;;;;;;2.03;1.03;;;7.10;99.90;;;;;;5070346;28;20540;-71
2022/12/27 15:29:42;;;;;;;2.07;1.10;;;6.90;99.90;;;;;;5071578;28;20578;-71
2022/12/27 15:32:45;;;;;;;3.40;1.00;;;6.90;99.90;;;;;;5064460;28;20223;-71
2022/12/27 15:35:28;;;;;;;3.43;1.30;;;6.80;99.90;;;;;;5068832;28;20433;-72
2022/12/27 15:38:08;;;;;;;3.00;0.90;;;6.70;99.90;;;;;;5072317;28;20546;-72
2022/12/27 15:40:41;;;;;;;2.33;0.83;;;6.70;99.90;;;;;;5080291;28;20416;-71
2022/12/27 15:43:42;;;;;;;5.00;1.20;;;6.60;99.90;;;;;;5071134;28;20413;-72
2022/12/27 15:46:49;;;;;;;1.50;0.90;;;6.60;99.90;;;;;;4986528;28;20452;-71
2022/12/27 15:49:51;;;;;;;1.60;0.77;;;6.60;99.90;;;;;;5071785;28;20404;-71
2022/12/27 15:52:57;;;;;;;11.80;0.87;;;6.50;99.90;;;;;;5071476;28;20458;-72
2022/12/27 15:55:47;;;;;;;5.47;1.27;;;6.40;99.90;;;;;;5063464;28;20397;-73
2022/12/27 15:58:21;;;;;;;3.83;1.80;;;6.20;99.90;;;;;;5068127;28;20471;-71
2022/12/27 16:01:14;;;;;;;4.73;1.73;;;6.10;99.90;;;;;;5061288;28;20509;-72
2022/12/27 16:03:43;;;;;;;6.37;3.27;;;6.10;99.90;;;;;;5054377;28;20388;-72
2022/12/27 16:06:32;;;;;;;6.60;3.00;;;6.00;99.90;;;;;;5064567;28;20417;-72
2022/12/27 16:09:17;;;;;;;9.57;3.60;;;5.90;99.90;;;;;;5071957;28;20845;-70
2022/12/27 16:12:09;;;;;;;3.53;2.57;;;5.80;99.90;;;;;;5068833;28;20448;-71
2022/12/27 16:14:37;;;;;;;11.40;4.17;;;5.70;99.90;;;;;;5068734;28;20416;-71